Time;durP1;ratioP1;P1;durP2;ratioP2;P2;SDS_P1;SDS_P2;PMS_P1;PMS_P2;Temp;Humidity;BMP_temperature;BMP_pressure;BME280_temperature;BME280_humidity;BME280_pressure;Samples;Min_cycle;Max_cycle;Signal;HPM_P1;HPM_P2
2021/09/25 00:02:20;;;;;;;;;;;;;;;16.10;84.73;101564.22;5056674;28;20425;-36
2021/09/25 00:04:46;;;;;;;9.43;6.20;;;;;;;16.01;84.68;101561.09;5055885;28;19904;-36
2021/09/25 00:07:11;;;;;;;10.30;6.15;;;;;;;15.95;85.02;101562.91;5055585;28;20256;-36
2021/09/25 00:09:40;;;;;;;9.55;6.30;;;;;;;15.98;85.06;101560.78;5055488;28;20036;-36
2021/09/25 00:12:07;;;;;;;10.63;6.50;;;;;;;15.90;85.44;101559.28;5056166;28;20031;-36
2021/09/25 00:14:32;;;;;;;9.23;6.20;;;;;;;15.96;84.84;101561.03;5055077;28;20031;-36
2021/09/25 00:16:58;;;;;;;10.20;6.60;;;;;;;15.95;85.25;101568.34;5056049;28;20024;-36
2021/09/25 00:19:23;;;;;;;;;;;;;;;16.03;83.80;101569.03;5055883;28;20041;-36
2021/09/25 00:21:48;;;;;;;9.23;6.20;;;;;;;15.91;85.10;101558.22;5055748;28;19927;-36
2021/09/25 00:24:15;;;;;;;10.32;6.25;;;;;;;15.80;84.88;101542.75;5055513;28;20025;-36
2021/09/25 00:26:40;;;;;;;8.57;5.82;;;;;;;15.87;85.19;101560.63;5055470;28;20025;-36
2021/09/25 00:29:06;;;;;;;9.43;6.32;;;;;;;15.91;85.00;101556.31;5055136;28;20033;-36
2021/09/25 00:31:31;;;;;;;10.85;6.35;;;;;;;15.83;85.22;101543.09;5055268;28;20037;-36
2021/09/25 00:33:56;;;;;;;;;;;;;;;15.99;84.55;101562.41;5055263;28;20373;-36
2021/09/25 00:36:22;;;;;;;9.53;6.00;;;;;;;15.92;85.49;101559.88;5055123;28;19932;-36
2021/09/25 00:38:47;;;;;;;9.83;6.07;;;;;;;15.86;85.25;101558.97;5054912;28;20287;-35
2021/09/25 00:41:13;;;;;;;11.57;6.93;;;;;;;15.86;85.48;101558.13;5054934;28;20325;-36
2021/09/25 00:43:39;;;;;;;11.15;7.47;;;;;;;15.82;85.34;101559.72;5054874;28;20032;-36
2021/09/25 00:46:04;;;;;;;10.70;6.47;;;;;;;15.80;85.48;101564.56;5055577;28;20028;-36
2021/09/25 00:48:29;;;;;;;9.73;6.10;;;;;;;15.78;85.38;101561.28;5054876;28;20057;-36
2021/09/25 00:50:55;;;;;;;;;;;;;;;15.88;84.66;101561.44;5055765;28;20400;-36
2021/09/25 00:53:20;;;;;;;8.60;6.00;;;;;;;15.78;85.39;101556.66;5054477;28;19912;-36
2021/09/25 00:55:47;;;;;;;10.65;6.63;;;;;;;15.73;85.52;101542.94;5054447;28;20274;-36
2021/09/25 00:58:12;;;;;;;8.82;5.95;;;;;;;15.76;85.74;101566.97;5054705;28;20047;-36
2021/09/25 01:00:38;;;;;;;8.10;6.05;;;;;;;15.68;85.65;101551.84;5054020;28;20438;-36
2021/09/25 01:03:03;;;;;;;9.35;6.63;;;;;;;15.66;85.89;101556.75;5055174;28;20028;-36
2021/09/25 01:05:29;;;;;;;11.73;6.35;;;;;;;15.70;85.49;101560.59;5054566;28;20028;-36
2021/09/25 01:07:54;;;;;;;;;;;;;;;15.81;84.91;101569.81;5055115;28;20025;-36
2021/09/25 01:10:20;;;;;;;8.73;5.78;;;;;;;15.70;85.25;101571.50;5054458;28;19904;-36
2021/09/25 01:12:46;;;;;;;8.45;5.53;;;;;;;15.67;85.25;101563.84;5054710;28;20471;-36
2021/09/25 01:15:12;;;;;;;;;;;;;;;15.81;84.78;101566.22;5054481;28;20369;-36
2021/09/25 01:17:38;;;;;;;11.13;6.47;;;;;;;15.69;85.42;101566.31;5053817;28;19911;-36
2021/09/25 01:20:06;;;;;;;9.18;5.80;;;;;;;15.66;85.86;101558.63;5054202;28;20021;-36
2021/09/25 01:22:31;;;;;;;11.52;6.38;;;;;;;15.45;85.46;101541.06;5054077;28;20033;-36
2021/09/25 01:24:57;;;;;;;11.95;6.18;;;;;;;15.57;85.79;101566.38;5054186;28;20028;-36
2021/09/25 01:27:22;;;;;;;10.05;5.97;;;;;;;15.52;85.55;101555.38;5053987;28;20040;-36
2021/09/25 01:29:48;;;;;;;8.45;6.20;;;;;;;15.56;86.00;101566.59;5054133;28;20049;-36
2021/09/25 01:32:13;;;;;;;;;;;;;;;15.65;84.92;101568.69;5054797;28;20358;-36
2021/09/25 01:34:39;;;;;;;8.25;5.35;;;;;;;15.54;85.22;101558.69;5054015;28;20319;-36
2021/09/25 01:37:05;;;;;;;7.22;4.78;;;;;;;15.60;85.75;101563.13;5052892;28;20041;-36
2021/09/25 01:39:31;;;;;;;9.30;6.38;;;;;;;15.57;85.51;101562.81;5054081;28;20093;-36
2021/09/25 01:41:58;;;;;;;8.20;5.13;;;;;;;15.50;85.79;101554.78;5054421;28;20024;-36
2021/09/25 01:44:26;;;;;;;9.18;5.30;;;;;;;15.52;85.67;101563.56;5053751;28;20020;-36
2021/09/25 01:46:52;;;;;;;7.97;5.07;;;;;;;15.53;85.76;101557.03;5053997;28;20103;-36
2021/09/25 01:49:17;;;;;;;7.85;4.85;;;;;;;15.48;85.29;101550.66;5053376;28;20520;-36
2021/09/25 01:51:42;;;;;;;9.77;5.18;;;;;;;15.54;85.31;101561.41;5053721;28;20036;-36
2021/09/25 01:54:08;;;;;;;;;;;;;;;15.61;84.96;101562.06;5052399;28;20045;-36
2021/09/25 01:56:33;;;;;;;10.00;5.17;;;;;;;15.52;85.91;101562.69;5053690;28;20337;-36
2021/09/25 01:58:58;;;;;;;8.93;5.10;;;;;;;15.54;85.57;101555.94;5053511;28;20627;-36
2021/09/25 02:01:24;;;;;;;8.02;5.22;;;;;;;15.44;85.98;101550.31;5053508;28;20247;-36
2021/09/25 02:03:49;;;;;;;7.15;4.38;;;;;;;15.52;85.23;101555.38;5053399;28;20047;-36
2021/09/25 02:06:14;;;;;;;;;;;;;;;15.60;84.66;101559.59;5054179;28;20537;-36
2021/09/25 02:08:41;;;;;;;12.43;5.27;;;;;;;15.46;85.38;101559.06;5053131;28;19995;-36
2021/09/25 02:11:07;;;;;;;10.48;4.93;;;;;;;15.47;85.62;101566.19;5053256;28;20286;-36
2021/09/25 02:13:33;;;;;;;7.05;4.93;;;;;;;15.48;85.74;101562.41;5052890;28;20458;-36
2021/09/25 02:15:58;;;;;;;;;;;;;;;15.55;84.85;101562.22;5053414;28;20031;-35
2021/09/25 02:18:24;;;;;;;7.68;4.85;;;;;;;15.38;85.49;101540.41;5052903;28;19912;-36
2021/09/25 02:20:50;;;;;;;7.72;5.20;;;;;;;15.40;85.56;101555.44;5053470;28;20504;-36
2021/09/25 02:23:15;;;;;;;6.95;4.78;;;;;;;15.47;85.58;101566.19;5053446;28;20112;-36
2021/09/25 02:25:41;;;;;;;7.50;4.55;;;;;;;15.33;85.54;101545.78;5053443;28;20020;-36
2021/09/25 02:28:06;;;;;;;;;;;;;;;15.52;85.01;101566.28;5053581;28;20035;-36
2021/09/25 02:30:32;;;;;;;8.60;4.60;;;;;;;15.39;85.80;101556.50;5053535;28;19905;-36
2021/09/25 02:32:57;;;;;;;8.00;4.90;;;;;;;15.42;85.68;101553.31;5053144;28;20029;-36
2021/09/25 02:35:23;;;;;;;6.50;4.45;;;;;;;15.42;85.67;101560.63;5053700;28;20021;-36
2021/09/25 02:37:49;;;;;;;;;;;;;;;15.49;84.90;101550.41;5053460;28;20097;-36
2021/09/25 02:40:16;;;;;;;6.65;4.63;;;;;;;15.40;85.93;101554.63;5052530;28;19908;-36
2021/09/25 02:42:42;;;;;;;5.55;3.85;;;;;;;15.39;85.66;101547.50;5053191;28;20033;-36
2021/09/25 02:45:08;;;;;;;9.10;4.70;;;;;;;15.32;85.96;101538.66;5052826;28;20028;-36
2021/09/25 02:47:34;;;;;;;8.90;5.40;;;;;;;15.35;86.18;101530.00;5052859;28;20021;-36
2021/09/25 02:49:59;;;;;;;8.48;4.60;;;;;;;15.39;85.92;101550.25;5052793;28;20024;-36
2021/09/25 02:52:26;;;;;;;5.53;4.40;;;;;;;15.35;85.91;101552.63;5052518;28;20029;-36
2021/09/25 02:54:52;;;;;;;9.57;4.95;;;;;;;15.35;86.26;101554.53;5052826;28;20021;-36
2021/09/25 02:57:18;;;;;;;6.75;4.38;;;;;;;15.32;86.10;101558.56;5053032;28;20440;-36
2021/09/25 02:59:43;;;;;;;5.90;3.97;;;;;;;15.34;86.01;101555.59;5052337;28;20499;-44
2021/09/25 03:02:08;;;;;;;4.90;3.80;;;;;;;15.33;86.48;101554.78;5053226;28;20025;-36
2021/09/25 03:04:33;;;;;;;;;;;;;;;15.44;85.43;101550.31;5052782;28;20060;-36
2021/09/25 03:06:59;;;;;;;6.37;4.17;;;;;;;15.24;86.41;101536.34;5052446;28;20391;-36
2021/09/25 03:09:24;;;;;;;;;;;;;;;15.43;85.29;101545.94;5053295;28;20029;-36
2021/09/25 03:11:50;;;;;;;8.05;4.05;;;;;;;15.33;86.37;101546.59;5052852;28;19954;-36
2021/09/25 03:14:15;;;;;;;7.20;4.25;;;;;;;15.33;86.41;101554.78;5052794;28;20096;-36
2021/09/25 03:16:41;;;;;;;7.75;4.55;;;;;;;15.30;86.89;101554.44;5053450;28;20029;-36
2021/09/25 03:19:06;;;;;;;7.03;4.75;;;;;;;15.29;86.77;101559.06;5053085;28;20049;-35
2021/09/25 03:21:32;;;;;;;4.47;3.78;;;;;;;15.31;86.66;101546.00;5052564;28;20032;-36
2021/09/25 03:23:57;;;;;;;7.40;4.28;;;;;;;15.18;86.68;101532.72;5054531;28;20040;-36
2021/09/25 03:26:23;;;;;;;6.97;4.38;;;;;;;15.19;87.20;101543.34;5056678;28;20025;-36
2021/09/25 03:28:48;;;;;;;6.65;3.60;;;;;;;15.30;87.08;101551.72;5056103;28;20040;-36
2021/09/25 03:31:14;;;;;;;7.50;4.30;;;;;;;15.24;87.14;101556.25;5057106;28;20371;-36
2021/09/25 03:33:39;;;;;;;;;;;;;;;15.34;85.93;101556.41;5056634;28;20120;-36
2021/09/25 03:36:04;;;;;;;5.63;3.80;;;;;;;15.26;86.63;101554.09;5055094;28;19963;-36
2021/09/25 03:38:30;;;;;;;6.35;4.18;;;;;;;15.27;86.97;101555.72;5056122;28;20313;-36
2021/09/25 03:40:56;;;;;;;7.10;3.58;;;;;;;15.28;87.19;101551.97;5056617;28;20060;-36
2021/09/25 03:43:21;;;;;;;5.35;3.35;;;;;;;15.23;87.10;101537.44;5056282;28;20044;-35
2021/09/25 03:45:47;;;;;;;;;;;;;;;15.36;86.52;101543.38;5056756;28;20021;-36
2021/09/25 03:48:12;;;;;;;8.88;3.80;;;;;;;15.21;87.14;101543.09;5055794;28;19915;-36
2021/09/25 03:50:38;;;;;;;6.60;3.70;;;;;;;15.05;86.82;101514.75;5056015;28;20114;-36
2021/09/25 03:53:03;;;;;;;6.72;4.00;;;;;;;15.22;87.84;101550.19;5055578;28;20056;-36
2021/09/25 03:55:29;;;;;;;;;;;;;;;15.31;86.46;101547.91;5056284;28;20055;-36
2021/09/25 03:57:56;;;;;;;7.88;4.25;;;;;;;15.24;87.66;101547.25;5055895;28;19904;-36
2021/09/25 04:00:22;;;;;;;7.45;4.05;;;;;;;15.18;87.71;101549.88;5055615;28;20086;-36
2021/09/25 04:02:50;;;;;;;6.10;3.88;;;;;;;15.10;87.93;101533.91;5054475;28;20432;-36
2021/09/25 04:05:16;;;;;;;5.93;4.03;;;;;;;15.17;87.95;101545.47;5055445;28;20056;-36
2021/09/25 04:07:41;;;;;;;7.97;3.95;;;;;;;15.20;87.50;101549.63;5056004;28;20108;-36
2021/09/25 04:10:07;;;;;;;7.53;4.17;;;;;;;15.16;88.24;101556.63;5055394;28;20021;-36
2021/09/25 04:12:32;;;;;;;5.30;3.92;;;;;;;15.14;88.08;101545.97;5055576;28;20321;-36
2021/09/25 04:14:58;;;;;;;8.27;4.43;;;;;;;15.19;87.93;101548.81;5055808;28;20025;-36
2021/09/25 04:17:23;;;;;;;6.78;4.10;;;;;;;15.18;87.94;101544.44;5055839;28;20033;-36
2021/09/25 04:19:49;;;;;;;8.43;4.63;;;;;;;15.14;88.40;101545.97;5055155;28;20066;-36
2021/09/25 04:22:14;;;;;;;6.40;4.05;;;;;;;15.17;88.20;101544.66;5054994;28;20029;-36
2021/09/25 04:24:39;;;;;;;6.18;3.75;;;;;;;15.20;88.16;101550.44;5055646;28;20028;-36
2021/09/25 04:27:05;;;;;;;;;;;;;;;15.28;86.96;101541.06;5055746;28;20405;-36
2021/09/25 04:29:30;;;;;;;7.37;4.40;;;;;;;15.16;88.19;101543.84;5054933;28;19904;-36
2021/09/25 04:31:55;;;;;;;9.57;4.77;;;;;;;15.15;88.84;101549.53;5055685;28;20243;-36
2021/09/25 04:34:21;;;;;;;7.88;4.47;;;;;;;15.18;88.50;101536.25;5054370;28;20458;-36
2021/09/25 04:36:46;;;;;;;8.27;4.93;;;;;;;15.07;88.45;101528.94;5054654;28;20461;-36
2021/09/25 04:39:11;;;;;;;8.55;4.78;;;;;;;15.16;88.37;101548.47;5054737;28;20040;-36
2021/09/25 04:41:37;;;;;;;;;;;;;;;15.23;87.24;101551.06;5056034;28;20025;-36
2021/09/25 04:44:02;;;;;;;9.77;4.67;;;;;;;15.17;88.35;101544.66;5055045;28;20291;-36
2021/09/25 04:46:28;;;;;;;7.05;4.70;;;;;;;15.00;88.92;101525.56;5054722;28;20267;-36
2021/09/25 04:48:53;;;;;;;5.83;4.03;;;;;;;15.17;88.81;101548.19;5055008;28;20040;-36
2021/09/25 04:51:19;;;;;;;8.53;5.20;;;;;;;15.04;88.59;101532.19;5054661;28;20259;-36
2021/09/25 04:53:45;;;;;;;;;;;;;;;15.18;88.18;101544.44;5055219;28;20282;-35
2021/09/25 04:56:11;;;;;;;9.27;4.63;;;;;;;15.10;88.58;101554.88;5055082;28;19905;-36
2021/09/25 04:58:37;;;;;;;9.75;5.03;;;;;;;15.02;89.10;101541.66;5054456;28;20457;-37
2021/09/25 05:01:04;;;;;;;5.88;4.57;;;;;;;14.98;89.39;101527.69;5054867;28;20029;-36
2021/09/25 05:03:29;;;;;;;8.68;4.80;;;;;;;15.08;88.95;101541.53;5054843;28;20079;-36
2021/09/25 05:05:55;;;;;;;8.13;5.15;;;;;;;15.05;88.68;101539.28;5053567;28;20412;-36
2021/09/25 05:08:20;;;;;;;7.72;5.00;;;;;;;15.08;89.36;101541.53;5055016;28;20029;-36
2021/09/25 05:10:45;;;;;;;10.43;5.47;;;;;;;15.10;89.15;101538.53;5055035;28;20406;-36
2021/09/25 05:13:11;;;;;;;7.93;5.05;;;;;;;15.09;88.82;101537.72;5054672;28;20020;-36
2021/09/25 05:15:36;;;;;;;8.27;5.37;;;;;;;15.06;88.91;101521.84;5054935;28;20059;-36
2021/09/25 05:18:02;;;;;;;7.10;4.88;;;;;;;15.02;88.88;101522.59;5054233;28;20624;-36
2021/09/25 05:20:27;;;;;;;;;;;;;;;15.21;87.99;101540.38;5054324;28;20037;-36
2021/09/25 05:22:52;;;;;;;7.85;5.20;;;;;;;15.12;88.67;101550.00;5054459;28;19913;-36
2021/09/25 05:25:18;;;;;;;9.43;4.82;;;;;;;15.12;88.91;101547.28;5054881;28;20438;-36
2021/09/25 05:27:43;;;;;;;9.00;5.70;;;;;;;15.09;89.22;101542.34;5054452;28;20021;-36
2021/09/25 05:30:10;;;;;;;7.22;4.80;;;;;;;15.06;89.05;101537.38;5054052;28;20116;-35
2021/09/25 05:32:36;;;;;;;7.63;5.40;;;;;;;14.89;89.24;101510.94;5053981;28;20115;-36
2021/09/25 05:35:02;;;;;;;8.27;5.38;;;;;;;15.11;89.15;101551.91;5053901;28;20021;-36
2021/09/25 05:37:28;;;;;;;8.38;5.35;;;;;;;15.08;89.53;101546.13;5054578;28;20195;-36
2021/09/25 05:39:56;;;;;;;11.70;4.97;;;;;;;15.00;89.69;101532.91;5053867;28;20512;-35
2021/09/25 05:42:23;;;;;;;8.82;5.45;;;;;;;15.07;89.74;101548.00;5054033;28;20016;-36
2021/09/25 05:44:49;;;;;;;7.57;4.90;;;;;;;15.08;89.65;101552.41;5053761;28;20381;-36
2021/09/25 05:47:15;;;;;;;8.05;5.47;;;;;;;15.04;89.54;101551.25;5054254;28;20047;-36
2021/09/25 05:49:41;;;;;;;9.30;5.82;;;;;;;15.06;89.48;101556.44;5053877;28;20025;-36
2021/09/25 05:52:08;;;;;;;7.40;5.18;;;;;;;15.08;89.68;101549.69;5054212;28;20017;-36
2021/09/25 05:54:35;;;;;;;11.07;5.90;;;;;;;15.00;89.77;101539.19;5053591;28;20125;-36
2021/09/25 05:57:00;;;;;;;7.28;6.07;;;;;;;15.09;89.98;101553.25;5053799;28;20082;-36
2021/09/25 05:59:25;;;;;;;15.17;6.83;;;;;;;15.06;89.74;101551.00;5053552;28;20024;-36
2021/09/25 06:01:51;;;;;;;;;;;;;;;15.15;88.69;101558.53;5053431;28;20107;-36
2021/09/25 06:04:16;;;;;;;9.77;5.93;;;;;;;15.09;89.46;101551.34;5053092;28;20362;-36
2021/09/25 06:06:41;;;;;;;11.98;6.43;;;;;;;15.09;89.93;101554.06;5053949;28;20016;-36
2021/09/25 06:09:07;;;;;;;12.03;6.60;;;;;;;15.03;89.49;101546.88;5053552;28;20028;-36
2021/09/25 06:11:32;;;;;;;10.27;6.40;;;;;;;15.12;89.92;101563.63;5053582;28;20465;-36
2021/09/25 06:13:57;;;;;;;11.27;6.93;;;;;;;15.00;90.23;101538.34;5053234;28;20103;-36
2021/09/25 06:16:22;;;;;;;;;;;;;;;15.19;89.12;101556.16;5053916;28;20021;-36
2021/09/25 06:18:48;;;;;;;11.83;6.70;;;;;;;15.06;90.27;101551.81;5053695;28;19960;-36
2021/09/25 06:21:13;;;;;;;11.27;6.45;;;;;;;14.97;89.94;101545.09;5053558;28;20276;-36
2021/09/25 06:23:39;;;;;;;14.80;7.30;;;;;;;15.06;90.20;101559.16;5053078;28;20028;-36
2021/09/25 06:26:04;;;;;;;9.85;7.32;;;;;;;15.10;90.17;101558.44;5053294;28;20090;-36
2021/09/25 06:28:30;;;;;;;12.15;7.40;;;;;;;15.19;90.33;101576.03;5052740;28;20013;-36
2021/09/25 06:30:55;;;;;;;9.63;7.63;;;;;;;15.22;89.96;101576.63;5053242;28;20037;-36
2021/09/25 06:33:20;;;;;;;;;;;;;;;15.27;89.40;101573.97;5054182;28;20468;-36
2021/09/25 06:35:47;;;;;;;10.47;7.87;;;;;;;15.18;89.84;101574.41;5053314;28;19985;-36
2021/09/25 06:38:13;;;;;;;11.98;8.23;;;;;;;15.24;89.71;101579.94;5052374;28;20777;-36
2021/09/25 06:40:38;;;;;;;16.65;9.25;;;;;;;15.14;89.91;101567.78;5052742;28;20053;-36
2021/09/25 06:43:04;;;;;;;13.40;8.13;;;;;;;15.23;89.87;101576.41;5052797;28;20120;-36
2021/09/25 06:45:32;;;;;;;16.38;8.00;;;;;;;15.29;89.78;101582.75;5052898;28;20025;-36
2021/09/25 06:47:58;;;;;;;12.65;8.55;;;;;;;15.31;89.72;101580.59;5053219;28;20100;-36
2021/09/25 06:50:25;;;;;;;19.15;9.23;;;;;;;15.34;89.57;101577.41;5052755;28;20317;-36
2021/09/25 06:52:50;;;;;;;13.32;8.45;;;;;;;15.25;89.77;101557.06;5052941;28;20029;-36
2021/09/25 06:55:16;;;;;;;13.05;9.40;;;;;;;15.29;89.41;101566.41;5052648;28;20021;-35
2021/09/25 06:57:41;;;;;;;;;;;;;;;15.47;89.24;101577.09;5053702;28;20021;-36
2021/09/25 07:00:07;;;;;;;14.20;9.27;;;;;;;15.40;88.94;101573.69;5056696;28;20257;-36
2021/09/25 07:02:35;;;;;;;;;;;;;;;15.49;88.35;101577.66;5057232;28;20021;-36
2021/09/25 07:05:01;;;;;;;13.90;10.27;;;;;;;15.42;89.60;101580.56;5057178;28;20287;-36
2021/09/25 07:07:26;;;;;;;15.93;10.33;;;;;;;15.43;89.63;101582.22;5056839;28;20108;-36
2021/09/25 07:09:51;;;;;;;;;;;;;;;15.55;88.79;101587.59;5057280;28;20033;-35
2021/09/25 07:12:17;;;;;;;15.87;10.07;;;;;;;15.37;88.87;101576.88;5057467;28;19958;-37
2021/09/25 07:14:42;;;;;;;15.85;10.32;;;;;;;15.42;88.87;101580.56;5055707;28;20357;-36
2021/09/25 07:17:07;;;;;;;16.88;11.40;;;;;;;15.52;88.69;101590.81;5055300;28;20366;-36
2021/09/25 07:19:33;;;;;;;17.07;11.23;;;;;;;15.48;88.99;101589.66;5056775;28;20045;-36
2021/09/25 07:21:58;;;;;;;15.07;10.50;;;;;;;15.53;89.06;101595.19;5054476;28;20267;-36
2021/09/25 07:24:23;;;;;;;14.43;10.57;;;;;;;15.51;89.09;101572.78;5056701;28;20259;-36
2021/09/25 07:26:49;;;;;;;15.57;10.90;;;;;;;15.47;88.73;101558.03;5056278;28;20252;-35
2021/09/25 07:29:14;;;;;;;13.73;10.90;;;;;;;15.67;88.58;101590.28;5056652;28;20114;-35
2021/09/25 07:31:39;;;;;;;16.10;11.27;;;;;;;15.70;88.55;101589.78;5056410;28;20029;-35
2021/09/25 07:34:05;;;;;;;;;;;;;;;15.83;88.07;101589.47;5056709;28;20078;-35
2021/09/25 07:36:30;;;;;;;15.40;11.20;;;;;;;15.77;88.00;101589.63;5056331;28;19904;-35
2021/09/25 07:38:55;;;;;;;16.55;11.70;;;;;;;15.79;88.10;101592.94;5056176;28;20268;-35
2021/09/25 07:41:22;;;;;;;20.08;12.27;;;;;;;15.80;88.13;101594.56;5056392;28;20025;-35
2021/09/25 07:43:48;;;;;;;17.83;12.18;;;;;;;15.75;88.09;101589.03;5056046;28;20020;-36
2021/09/25 07:46:13;;;;;;;17.20;11.27;;;;;;;15.84;87.72;101595.72;5056569;28;20025;-36
2021/09/25 07:48:39;;;;;;;19.40;12.35;;;;;;;15.83;87.88;101605.00;5056170;28;20110;-36
2021/09/25 07:51:04;;;;;;;;;;;;;;;15.93;87.31;101597.81;5057049;28;20024;-36
2021/09/25 07:53:29;;;;;;;18.00;11.57;;;;;;;15.85;87.94;101603.66;5056047;28;19905;-36
2021/09/25 07:55:55;;;;;;;20.13;12.35;;;;;;;15.80;87.47;101594.56;5056160;28;20248;-36
2021/09/25 07:58:20;;;;;;;18.27;12.90;;;;;;;15.79;87.61;101612.00;5055793;28;20052;-36
2021/09/25 08:00:46;;;;;;;17.45;12.55;;;;;;;15.88;87.55;101626.91;5055876;28;20083;-35
2021/09/25 08:03:11;;;;;;;20.77;12.73;;;;;;;15.91;88.06;101616.31;5055709;28;20017;-35
2021/09/25 08:05:37;;;;;;;18.27;12.30;;;;;;;16.02;87.52;101630.13;5055760;28;20460;-35
2021/09/25 08:08:02;;;;;;;;;;;;;;;16.15;87.30;101627.91;5056349;28;20039;-35
2021/09/25 08:10:27;;;;;;;17.58;12.18;;;;;;;16.14;86.74;101633.59;5055203;28;19999;-35
2021/09/25 08:12:53;;;;;;;;;;;;;;;16.22;86.81;101627.72;5056206;28;20025;-35
2021/09/25 08:15:18;;;;;;;18.42;12.20;;;;;;;16.12;86.87;101622.09;5055422;28;20314;-35
2021/09/25 08:17:45;;;;;;;22.35;12.48;;;;;;;16.15;87.28;101622.44;5055806;28;20020;-35
2021/09/25 08:20:12;;;;;;;20.77;12.65;;;;;;;16.22;86.82;101623.09;5055918;28;20102;-35
2021/09/25 08:22:38;;;;;;;18.25;12.85;;;;;;;16.27;86.67;101629.69;5055579;28;20025;-35
2021/09/25 08:25:04;;;;;;;19.17;13.20;;;;;;;16.32;86.14;101633.31;5055294;28;20025;-35
2021/09/25 08:27:30;;;;;;;20.40;13.27;;;;;;;16.33;86.10;101632.25;5055353;28;20021;-35
2021/09/25 08:29:55;;;;;;;17.73;12.98;;;;;;;16.42;86.13;101638.94;5055236;28;20021;-35
2021/09/25 08:32:21;;;;;;;;;;;;;;;16.53;85.93;101645.38;5055884;28;20029;-35
2021/09/25 08:34:46;;;;;;;18.58;12.63;;;;;;;16.51;85.41;101641.25;5054812;28;20004;-35
2021/09/25 08:37:13;;;;;;;21.00;13.52;;;;;;;16.52;85.09;101643.72;5055616;28;20244;-35
2021/09/25 08:39:39;;;;;;;20.80;14.15;;;;;;;16.59;84.73;101647.09;5054879;28;20028;-35
2021/09/25 08:42:04;;;;;;;17.80;13.15;;;;;;;16.59;85.07;101649.84;5054859;28;20044;-35
2021/09/25 08:44:31;;;;;;;;;;;;;;;16.77;85.05;101650.63;5055785;28;20064;-35
2021/09/25 08:46:56;;;;;;;20.38;13.55;;;;;;;16.67;84.82;101663.03;5055466;28;19949;-36
2021/09/25 08:49:21;;;;;;;20.80;13.48;;;;;;;16.72;84.87;101662.31;5055120;28;20429;-35
2021/09/25 08:51:47;;;;;;;;;;;;;;;16.87;84.82;101658.97;5056023;28;20069;-35
2021/09/25 08:54:12;;;;;;;23.83;14.70;;;;;;;16.78;85.32;101664.03;5054559;28;19915;-35
2021/09/25 08:56:38;;;;;;;21.35;15.38;;;;;;;16.81;84.53;101662.72;5055381;28;20367;-35
2021/09/25 08:59:05;;;;;;;18.75;14.48;;;;;;;16.82;84.66;101662.44;5054837;28;20056;-35
2021/09/25 09:01:32;;;;;;;21.10;14.68;;;;;;;16.83;84.43;101664.09;5055314;28;20040;-35
2021/09/25 09:03:59;;;;;;;18.33;14.35;;;;;;;16.79;84.04;101673.91;5055148;28;20039;-35
2021/09/25 09:06:27;;;;;;;19.75;14.75;;;;;;;16.88;84.42;101680.56;5053552;28;20102;-35
2021/09/25 09:08:54;;;;;;;19.95;14.43;;;;;;;16.91;84.43;101676.50;5055043;28;20031;-35
2021/09/25 09:11:22;;;;;;;18.98;14.20;;;;;;;16.85;84.09;101663.88;5054905;28;20437;-35
2021/09/25 09:13:54;;;;;;;19.33;14.20;;;;;;;16.97;83.99;101675.47;5054045;28;20021;-35
2021/09/25 09:16:20;;;;;;;23.42;14.15;;;;;;;16.92;83.73;101659.84;5054618;28;20024;-35
2021/09/25 09:18:47;;;;;;;18.67;13.63;;;;;;;17.04;83.75;101688.97;5054235;28;20136;-35
2021/09/25 09:21:27;;;;;;;17.17;13.30;;;;;;;17.05;83.56;101676.97;5054187;28;20032;-35
2021/09/25 09:23:57;;;;;;;18.58;13.25;;;;;;;17.07;83.41;101680.25;5054080;28;20029;-35
2021/09/25 09:26:26;;;;;;;18.80;14.15;;;;;;;17.04;83.01;101669.84;5054440;28;20044;-35
2021/09/25 09:28:53;;;;;;;21.55;14.02;;;;;;;17.05;83.38;101672.31;5054066;28;20452;-35
2021/09/25 09:31:19;;;;;;;23.42;14.57;;;;;;;17.05;83.58;101680.53;5054023;28;20082;-35
2021/09/25 09:33:51;;;;;;;19.55;13.80;;;;;;;17.05;83.75;101674.22;5054070;28;20029;-35
2021/09/25 09:36:16;;;;;;;20.45;13.93;;;;;;;17.07;83.13;101674.78;5054736;28;20057;-35
2021/09/25 09:38:53;;;;;;;21.27;13.15;;;;;;;17.07;83.14;101672.88;5053392;28;20404;-36
2021/09/25 09:41:44;;;;;;;20.55;14.07;;;;;;;17.18;83.91;101674.69;5053331;28;20029;-35
2021/09/25 09:44:18;;;;;;;19.83;13.80;;;;;;;17.16;83.59;101681.47;5051573;28;20376;-35
2021/09/25 09:46:46;;;;;;;16.30;12.65;;;;;;;17.15;83.64;101680.66;5054224;28;20099;-35
2021/09/25 09:49:18;;;;;;;22.38;14.70;;;;;;;16.91;83.09;101643.72;5053611;28;20029;-35
2021/09/25 09:51:52;;;;;;;18.67;13.05;;;;;;;17.05;83.98;101649.63;5053954;28;20021;-36
2021/09/25 09:54:28;;;;;;;22.45;13.68;;;;;;;17.20;83.56;101677.16;5054179;28;20032;-35
2021/09/25 09:56:56;;;;;;;18.50;13.77;;;;;;;17.27;83.39;101677.75;5053596;28;20017;-35
2021/09/25 09:59:22;;;;;;;19.77;13.80;;;;;;;17.34;84.17;101683.06;5053428;28;20021;-35
2021/09/25 10:01:48;;;;;;;20.08;13.80;;;;;;;17.26;83.42;101659.72;5053727;28;20021;-35
2021/09/25 10:04:15;;;;;;;15.15;12.65;;;;;;;17.46;83.02;101686.47;5053663;28;20013;-36
2021/09/25 10:06:41;;;;;;;20.60;13.45;;;;;;;17.43;82.63;101684.25;5053230;28;20071;-35
2021/09/25 10:09:08;;;;;;;;;;;;;;;17.57;82.94;101684.66;5053535;28;20377;-35
2021/09/25 10:11:35;;;;;;;19.08;12.13;;;;;;;17.48;82.31;101678.84;5053227;28;20414;-35
2021/09/25 10:14:01;;;;;;;17.63;11.65;;;;;;;17.40;82.69;101655.50;5053355;28;20076;-35
2021/09/25 10:16:26;;;;;;;;;;;;;;;17.62;83.13;101669.16;5054274;28;20437;-35
2021/09/25 10:18:54;;;;;;;17.90;12.13;;;;;;;17.57;82.48;101660.91;5051769;28;20360;-35
2021/09/25 10:21:20;;;;;;;17.45;11.50;;;;;;;17.62;81.16;101673.81;5052905;28;20483;-35
2021/09/25 10:23:56;;;;;;;16.35;11.70;;;;;;;17.65;81.57;101679.56;5052904;28;20029;-35
2021/09/25 10:26:21;;;;;;;17.73;11.00;;;;;;;17.72;81.30;101688.41;5053953;28;20021;-35
2021/09/25 10:28:54;;;;;;;;;;;;;;;17.86;82.06;101683.38;5053979;28;20143;-35
2021/09/25 10:31:20;;;;;;;14.35;11.35;;;;;;;17.75;81.04;101662.44;5053509;28;19954;-35
2021/09/25 10:34:05;;;;;;;;;;;;;;;17.96;81.57;101672.53;5052609;28;20040;-35
2021/09/25 10:36:36;;;;;;;16.55;11.40;;;;;;;17.97;80.63;101670.59;5053592;28;20230;-35
2021/09/25 10:39:36;;;;;;;15.65;11.00;;;;;;;18.06;81.13;101673.69;5053134;28;20028;-35
2021/09/25 10:42:15;;;;;;;15.45;11.68;;;;;;;18.09;79.36;101662.22;5053191;28;20028;-35
2021/09/25 10:45:00;;;;;;;17.42;11.02;;;;;;;18.12;79.92;101651.56;5052575;28;20090;-35
2021/09/25 10:47:34;;;;;;;17.45;12.05;;;;;;;18.27;78.55;101664.53;5053227;28;20361;-35
2021/09/25 10:50:00;;;;;;;13.30;10.40;;;;;;;18.29;78.84;101662.34;5052521;28;20060;-35
2021/09/25 10:52:51;;;;;;;18.17;12.15;;;;;;;18.33;79.02;101659.94;5052725;28;20032;-35
2021/09/25 10:55:28;;;;;;;15.70;11.90;;;;;;;18.38;78.44;101665.44;5052967;28;20031;-35
2021/09/25 10:58:20;;;;;;;18.67;11.20;;;;;;;18.46;78.13;101659.47;5052715;28;20047;-35
2021/09/25 11:00:49;;;;;;;18.42;11.05;;;;;;;18.44;77.29;101653.41;5053187;28;20021;-35
2021/09/25 11:03:42;;;;;;;19.45;11.18;;;;;;;18.63;78.84;101657.38;5053256;28;20107;-35
2021/09/25 11:06:24;;;;;;;15.05;11.20;;;;;;;18.65;77.56;101652.47;5052782;28;20036;-35
2021/09/25 11:09:03;;;;;;;15.95;10.98;;;;;;;18.81;78.26;101642.44;5052852;28;20471;-35
2021/09/25 11:11:48;;;;;;;16.80;11.38;;;;;;;18.88;77.33;101640.28;5052470;28;20025;-36
2021/09/25 11:14:27;;;;;;;14.32;10.95;;;;;;;18.87;76.90;101637.81;5052166;28;20329;-35
2021/09/25 11:17:01;;;;;;;14.82;11.25;;;;;;;18.90;76.53;101640.03;5053105;28;20159;-35
2021/09/25 11:19:28;;;;;;;13.05;10.48;;;;;;;18.84;76.21;101636.44;5052310;28;20432;-35
2021/09/25 11:22:17;;;;;;;12.80;10.75;;;;;;;18.98;77.59;101636.75;5052737;28;20074;-35
2021/09/25 11:24:45;;;;;;;16.42;10.93;;;;;;;19.03;75.52;101642.25;5052046;28;20047;-35
2021/09/25 11:27:23;;;;;;;15.43;10.18;;;;;;;19.05;76.02;101640.09;5052883;28;20040;-35